sensor_id;sensor_type;location;lat;lon;timestamp;pressure;altitude;pressure_sealevel;temperature;humidity
39613;BME280;25303;48.896;13.342;2023-05-16T00:00:49;92421.25;;;9.46;76.74
39613;BME280;25303;48.896;13.342;2023-05-16T00:03:34;92416.63;;;9.50;76.72
39613;BME280;25303;48.896;13.342;2023-05-16T00:06:17;92418.25;;;9.51;76.66
39613;BME280;25303;48.896;13.342;2023-05-16T00:09:00;92420.16;;;9.49;76.36
39613;BME280;25303;48.896;13.342;2023-05-16T00:11:45;92430.59;;;9.39;76.38
39613;BME280;25303;48.896;13.342;2023-05-16T00:14:29;92422.38;;;9.35;76.41
39613;BME280;25303;48.896;13.342;2023-05-16T00:17:11;92417.88;;;9.37;76.55
39613;BME280;25303;48.896;13.342;2023-05-16T00:19:55;92423.84;;;9.38;76.36
39613;BME280;25303;48.896;13.342;2023-05-16T00:22:40;92418.56;;;9.31;76.28
39613;BME280;25303;48.896;13.342;2023-05-16T00:25:23;92419.03;;;9.26;76.46
39613;BME280;25303;48.896;13.342;2023-05-16T00:28:07;92427.22;;;9.30;76.53
39613;BME280;25303;48.896;13.342;2023-05-16T00:30:51;92425.59;;;9.29;76.94
39613;BME280;25303;48.896;13.342;2023-05-16T00:33:34;92420.31;;;9.22;76.70
39613;BME280;25303;48.896;13.342;2023-05-16T00:36:17;92422.19;;;9.12;76.36
39613;BME280;25303;48.896;13.342;2023-05-16T00:39:02;92410.16;;;9.04;76.29
39613;BME280;25303;48.896;13.342;2023-05-16T00:41:45;92423.00;;;9.04;76.59
39613;BME280;25303;48.896;13.342;2023-05-16T00:44:29;92424.47;;;9.07;76.72
39613;BME280;25303;48.896;13.342;2023-05-16T00:47:13;92421.41;;;9.11;76.91
39613;BME280;25303;48.896;13.342;2023-05-16T00:49:56;92423.50;;;9.16;76.23
39613;BME280;25303;48.896;13.342;2023-05-16T00:52:39;92422.06;;;9.14;76.51
39613;BME280;25303;48.896;13.342;2023-05-16T00:55:22;92422.19;;;9.12;76.77
39613;BME280;25303;48.896;13.342;2023-05-16T00:58:05;92419.63;;;9.12;76.99
39613;BME280;25303;48.896;13.342;2023-05-16T01:00:50;92421.75;;;9.17;77.07
39613;BME280;25303;48.896;13.342;2023-05-16T01:03:33;92416.28;;;9.20;76.93
39613;BME280;25303;48.896;13.342;2023-05-16T01:06:16;92416.13;;;9.21;77.00
39613;BME280;25303;48.896;13.342;2023-05-16T01:08:59;92408.75;;;9.18;76.91
39613;BME280;25303;48.896;13.342;2023-05-16T01:11:49;92407.13;;;9.17;76.86
39613;BME280;25303;48.896;13.342;2023-05-16T01:14:39;92409.69;;;9.17;76.59
39613;BME280;25303;48.896;13.342;2023-05-16T01:17:32;92408.75;;;9.18;76.67
39613;BME280;25303;48.896;13.342;2023-05-16T01:20:27;92403.59;;;9.18;76.69
39613;BME280;25303;48.896;13.342;2023-05-16T01:23:33;92401.50;;;9.14;76.74
39613;BME280;25303;48.896;13.342;2023-05-16T01:26:21;92398.31;;;9.11;76.70
39613;BME280;25303;48.896;13.342;2023-05-16T01:29:05;92394.28;;;9.09;76.82
39613;BME280;25303;48.896;13.342;2023-05-16T01:31:49;92393.47;;;9.08;76.93
39613;BME280;25303;48.896;13.342;2023-05-16T01:34:32;92399.44;;;9.09;76.77
39613;BME280;25303;48.896;13.342;2023-05-16T01:37:18;92390.25;;;9.06;76.29
39613;BME280;25303;48.896;13.342;2023-05-16T01:40:05;92392.00;;;8.97;76.04
39613;BME280;25303;48.896;13.342;2023-05-16T01:42:53;92390.25;;;8.90;76.30
39613;BME280;25303;48.896;13.342;2023-05-16T01:45:42;92405.94;;;8.87;76.41
39613;BME280;25303;48.896;13.342;2023-05-16T01:48:32;92400.50;;;8.90;76.18
39613;BME280;25303;48.896;13.342;2023-05-16T01:51:17;92404.84;;;8.89;76.21
39613;BME280;25303;48.896;13.342;2023-05-16T01:54:04;92388.63;;;8.89;76.10
39613;BME280;25303;48.896;13.342;2023-05-16T01:56:51;92391.19;;;8.89;76.24
39613;BME280;25303;48.896;13.342;2023-05-16T01:59:37;92406.75;;;8.87;76.27
39613;BME280;25303;48.896;13.342;2023-05-16T02:02:21;92409.81;;;8.91;76.07
39613;BME280;25303;48.896;13.342;2023-05-16T02:05:04;92403.88;;;8.90;75.73
39613;BME280;25303;48.896;13.342;2023-05-16T02:07:47;92400.81;;;8.87;75.80
39613;BME280;25303;48.896;13.342;2023-05-16T02:10:30;92415.59;;;8.85;75.91
39613;BME280;25303;48.896;13.342;2023-05-16T02:13:13;92407.91;;;8.85;75.95
39613;BME280;25303;48.896;13.342;2023-05-16T02:15:58;92405.81;;;8.88;76.10
39613;BME280;25303;48.896;13.342;2023-05-16T02:18:41;92401.47;;;8.89;75.98
39613;BME280;25303;48.896;13.342;2023-05-16T02:21:25;92408.34;;;8.80;76.12
39613;BME280;25303;48.896;13.342;2023-05-16T02:24:08;92401.59;;;8.71;76.09
39613;BME280;25303;48.896;13.342;2023-05-16T02:26:51;92398.19;;;8.62;76.19
39613;BME280;25303;48.896;13.342;2023-05-16T02:29:34;92392.59;;;8.58;76.37
39613;BME280;25303;48.896;13.342;2023-05-16T02:32:18;92394.19;;;8.59;76.54
39613;BME280;25303;48.896;13.342;2023-05-16T02:35:02;92393.06;;;8.62;76.65
39613;BME280;25303;48.896;13.342;2023-05-16T02:37:45;92397.91;;;8.65;76.74
39613;BME280;25303;48.896;13.342;2023-05-16T02:40:28;92395.16;;;8.66;76.93
39613;BME280;25303;48.896;13.342;2023-05-16T02:43:11;92400.16;;;8.68;76.70
39613;BME280;25303;48.896;13.342;2023-05-16T02:45:56;92404.94;;;8.71;76.86
39613;BME280;25303;48.896;13.342;2023-05-16T02:48:40;92405.59;;;8.73;76.81
39613;BME280;25303;48.896;13.342;2023-05-16T02:51:24;92411.56;;;8.74;76.75
39613;BME280;25303;48.896;13.342;2023-05-16T02:54:08;92406.25;;;8.75;76.73
39613;BME280;25303;48.896;13.342;2023-05-16T02:56:51;92402.72;;;8.76;76.76
39613;BME280;25303;48.896;13.342;2023-05-16T02:59:35;92406.72;;;8.79;76.69
39613;BME280;25303;48.896;13.342;2023-05-16T03:02:18;92416.84;;;8.80;76.64
39613;BME280;25303;48.896;13.342;2023-05-16T03:05:02;92413.34;;;8.81;76.87
39613;BME280;25303;48.896;13.342;2023-05-16T03:07:46;92408.03;;;8.83;76.77
39613;BME280;25303;48.896;13.342;2023-05-16T03:10:29;92411.41;;;8.84;76.76
39613;BME280;25303;48.896;13.342;2023-05-16T03:13:12;92411.41;;;8.84;76.76
39613;BME280;25303;48.896;13.342;2023-05-16T03:15:58;92408.84;;;8.84;76.91
39613;BME280;25303;48.896;13.342;2023-05-16T03:18:41;92415.59;;;8.85;76.72
39613;BME280;25303;48.896;13.342;2023-05-16T03:21:25;92413.97;;;8.84;76.54
39613;BME280;25303;48.896;13.342;2023-05-16T03:24:09;92418.47;;;8.81;76.77
39613;BME280;25303;48.896;13.342;2023-05-16T03:26:52;92420.22;;;8.81;76.74
39613;BME280;25303;48.896;13.342;2023-05-16T03:29:35;92413.34;;;8.81;76.63
39613;BME280;25303;48.896;13.342;2023-05-16T03:32:19;92415.09;;;8.81;76.38
39613;BME280;25303;48.896;13.342;2023-05-16T03:35:02;92417.81;;;8.79;76.37
39613;BME280;25303;48.896;13.342;2023-05-16T03:37:46;92407.69;;;8.78;76.80
39613;BME280;25303;48.896;13.342;2023-05-16T03:40:30;92410.91;;;8.80;77.00
39613;BME280;25303;48.896;13.342;2023-05-16T03:43:13;92414.44;;;8.79;77.28
39613;BME280;25303;48.896;13.342;2023-05-16T03:45:56;92417.66;;;8.81;77.43
39613;BME280;25303;48.896;13.342;2023-05-16T03:48:40;92411.56;;;8.82;77.38
39613;BME280;25303;48.896;13.342;2023-05-16T03:51:23;92399.53;;;8.82;77.18
39613;BME280;25303;48.896;13.342;2023-05-16T03:54:07;92412.22;;;8.84;77.09
39613;BME280;25303;48.896;13.342;2023-05-16T03:56:50;92403.72;;;8.84;77.08
39613;BME280;25303;48.896;13.342;2023-05-16T03:59:33;92399.53;;;8.82;77.24
39613;BME280;25303;48.896;13.342;2023-05-16T04:02:16;92408.84;;;8.84;77.31
39613;BME280;25303;48.896;13.342;2023-05-16T04:04:59;92407.72;;;8.86;77.44
39613;BME280;25303;48.896;13.342;2023-05-16T04:07:43;92403.38;;;8.87;77.56
39613;BME280;25303;48.896;13.342;2023-05-16T04:10:28;92399.84;;;8.88;77.55
39613;BME280;25303;48.896;13.342;2023-05-16T04:13:11;92399.72;;;8.89;77.70
39613;BME280;25303;48.896;13.342;2023-05-16T04:15:54;92397.94;;;8.90;77.76
39613;BME280;25303;48.896;13.342;2023-05-16T04:18:37;92401.16;;;8.92;77.69
39613;BME280;25303;48.896;13.342;2023-05-16T04:21:20;92394.28;;;8.92;77.86
39613;BME280;25303;48.896;13.342;2023-05-16T04:24:03;92391.53;;;8.94;77.95
39613;BME280;25303;48.896;13.342;2023-05-16T04:26:48;92389.63;;;8.96;78.00
39613;BME280;25303;48.896;13.342;2023-05-16T04:29:31;92385.28;;;8.96;77.97
39613;BME280;25303;48.896;13.342;2023-05-16T04:32:14;92392.84;;;8.98;78.11
39613;BME280;25303;48.896;13.342;2023-05-16T04:34:58;92388.34;;;9.00;78.11
39613;BME280;25303;48.896;13.342;2023-05-16T04:37:41;92383.22;;;9.00;77.99
39613;BME280;25303;48.896;13.342;2023-05-16T04:40:24;92389.63;;;9.04;78.14
39613;BME280;25303;48.896;13.342;2023-05-16T04:43:10;92388.34;;;9.08;78.03
39613;BME280;25303;48.896;13.342;2023-05-16T04:45:52;92383.53;;;9.14;77.97
39613;BME280;25303;48.896;13.342;2023-05-16T04:48:36;92391.53;;;9.19;77.93
39613;BME280;25303;48.896;13.342;2023-05-16T04:51:19;92396.38;;;9.22;78.11
39613;BME280;25303;48.896;13.342;2023-05-16T04:54:02;92400.41;;;9.24;77.99
39613;BME280;25303;48.896;13.342;2023-05-16T04:56:45;92396.69;;;9.27;78.07
39613;BME280;25303;48.896;13.342;2023-05-16T04:59:30;92398.13;;;9.30;77.97
39613;BME280;25303;48.896;13.342;2023-05-16T05:02:13;92402.31;;;9.31;78.11
39613;BME280;25303;48.896;13.342;2023-05-16T05:04:56;92401.22;;;9.33;78.13
39613;BME280;25303;48.896;13.342;2023-05-16T05:07:39;92390.59;;;9.36;78.05
39613;BME280;25303;48.896;13.342;2023-05-16T05:10:22;92396.06;;;9.41;78.04
39613;BME280;25303;48.896;13.342;2023-05-16T05:13:05;92404.09;;;9.47;78.12
39613;BME280;25303;48.896;13.342;2023-05-16T05:15:49;92402.97;;;9.49;78.12
39613;BME280;25303;48.896;13.342;2023-05-16T05:18:32;92404.56;;;9.50;78.32
39613;BME280;25303;48.896;13.342;2023-05-16T05:21:16;92400.06;;;9.52;78.25
39613;BME280;25303;48.896;13.342;2023-05-16T05:23:59;92397.19;;;9.55;78.26
39613;BME280;25303;48.896;13.342;2023-05-16T05:26:41;92387.38;;;9.59;78.14
39613;BME280;25303;48.896;13.342;2023-05-16T05:29:25;92388.03;;;9.61;78.17
39613;BME280;25303;48.896;13.342;2023-05-16T05:32:10;92376.31;;;9.58;78.50
39613;BME280;25303;48.896;13.342;2023-05-16T05:34:53;92391.25;;;9.63;78.51
39613;BME280;25303;48.896;13.342;2023-05-16T05:37:37;92383.22;;;9.66;78.48
39613;BME280;25303;48.896;13.342;2023-05-16T05:40:20;92386.41;;;9.68;78.62
39613;BME280;25303;48.896;13.342;2023-05-16T05:43:03;92393.16;;;9.69;78.69
39613;BME280;25303;48.896;13.342;2023-05-16T05:45:47;92388.50;;;9.73;78.71
39613;BME280;25303;48.896;13.342;2023-05-16T05:48:31;92384.78;;;9.76;78.76
39613;BME280;25303;48.896;13.342;2023-05-16T05:51:14;92379.34;;;9.79;78.56
39613;BME280;25303;48.896;13.342;2023-05-16T05:53:58;92380.63;;;9.83;78.70
39613;BME280;25303;48.896;13.342;2023-05-16T05:56:41;92380.28;;;9.86;78.68
39613;BME280;25303;48.896;13.342;2023-05-16T05:59:24;92373.06;;;9.90;78.61
39613;BME280;25303;48.896;13.342;2023-05-16T06:02:08;92365.81;;;9.93;78.74
39613;BME280;25303;48.896;13.342;2023-05-16T06:04:52;92375.59;;;9.98;78.82
39613;BME280;25303;48.896;13.342;2023-05-16T06:07:35;92370.75;;;10.03;78.89
39613;BME280;25303;48.896;13.342;2023-05-16T06:10:18;92369.28;;;10.09;78.94
39613;BME280;25303;48.896;13.342;2023-05-16T06:13:02;92356.75;;;10.14;78.92
39613;BME280;25303;48.896;13.342;2023-05-16T06:15:49;92356.88;;;10.21;79.26
39613;BME280;25303;48.896;13.342;2023-05-16T06:18:32;92357.16;;;10.34;79.36
39613;BME280;25303;48.896;13.342;2023-05-16T06:21:17;92358.59;;;10.45;79.21
39613;BME280;25303;48.896;13.342;2023-05-16T06:24:00;92350.81;;;10.53;79.12
39613;BME280;25303;48.896;13.342;2023-05-16T06:26:44;92348.09;;;10.55;79.33
39613;BME280;25303;48.896;13.342;2023-05-16T06:29:30;92363.66;;;10.61;79.33
39613;BME280;25303;48.896;13.342;2023-05-16T06:32:13;92370.69;;;10.68;79.28
39613;BME280;25303;48.896;13.342;2023-05-16T06:34:57;92378.72;;;10.73;79.48
39613;BME280;25303;48.896;13.342;2023-05-16T06:37:42;92383.19;;;10.79;79.69
39613;BME280;25303;48.896;13.342;2023-05-16T06:40:25;92390.06;;;10.87;79.76
39613;BME280;25303;48.896;13.342;2023-05-16T06:43:09;92394.38;;;10.94;79.62
39613;BME280;25303;48.896;13.342;2023-05-16T06:45:52;92392.88;;;11.00;79.56
39613;BME280;25303;48.896;13.342;2023-05-16T06:48:35;92393.81;;;11.07;79.86
39613;BME280;25303;48.896;13.342;2023-05-16T06:51:18;92402.44;;;11.15;79.98
39613;BME280;25303;48.896;13.342;2023-05-16T06:54:03;92411.28;;;11.20;79.89
39613;BME280;25303;48.896;13.342;2023-05-16T06:56:46;92403.84;;;11.25;80.02
39613;BME280;25303;48.896;13.342;2023-05-16T06:59:29;92404.75;;;11.33;80.04
39613;BME280;25303;48.896;13.342;2023-05-16T07:02:12;92413.56;;;11.38;80.04
39613;BME280;25303;48.896;13.342;2023-05-16T07:04:55;92412.59;;;11.39;79.74
39613;BME280;25303;48.896;13.342;2023-05-16T07:07:38;92413.41;;;11.40;79.53
39613;BME280;25303;48.896;13.342;2023-05-16T07:10:22;92410.28;;;11.45;79.69
39613;BME280;25303;48.896;13.342;2023-05-16T07:13:06;92415.75;;;11.50;79.67
39613;BME280;25303;48.896;13.342;2023-05-16T07:15:49;92422.50;;;11.51;79.65
39613;BME280;25303;48.896;13.342;2023-05-16T07:18:32;92428.91;;;11.55;79.82
39613;BME280;25303;48.896;13.342;2023-05-16T07:21:15;92426.78;;;11.59;79.75
39613;BME280;25303;48.896;13.342;2023-05-16T07:23:58;92420.47;;;11.61;79.46
39613;BME280;25303;48.896;13.342;2023-05-16T07:26:43;92421.56;;;11.67;79.54
39613;BME280;25303;48.896;13.342;2023-05-16T07:29:26;92419.28;;;11.72;79.73
39613;BME280;25303;48.896;13.342;2023-05-16T07:32:09;92426.31;;;11.78;79.68
39613;BME280;25303;48.896;13.342;2023-05-16T07:34:53;92422.88;;;11.86;79.81
39613;BME280;25303;48.896;13.342;2023-05-16T07:37:36;92422.31;;;11.99;80.11
39613;BME280;25303;48.896;13.342;2023-05-16T07:40:18;92422.22;;;12.07;79.68
39613;BME280;25303;48.896;13.342;2023-05-16T07:43:10;92430.50;;;12.18;79.54
39613;BME280;25303;48.896;13.342;2023-05-16T07:45:53;92441.53;;;12.26;79.55
39613;BME280;25303;48.896;13.342;2023-05-16T07:48:37;92441.28;;;12.36;79.52
39613;BME280;25303;48.896;13.342;2023-05-16T07:51:20;92442.81;;;12.45;79.22
39613;BME280;25303;48.896;13.342;2023-05-16T07:54:03;92438.72;;;12.51;78.85
39613;BME280;25303;48.896;13.342;2023-05-16T07:56:46;92445.03;;;12.64;78.87
39613;BME280;25303;48.896;13.342;2023-05-16T07:59:31;92449.00;;;12.66;78.29
39613;BME280;25303;48.896;13.342;2023-05-16T08:02:14;92448.59;;;12.77;78.25
39613;BME280;25303;48.896;13.342;2023-05-16T08:04:57;92443.13;;;12.87;78.25
39613;BME280;25303;48.896;13.342;2023-05-16T08:07:40;92437.22;;;12.94;77.94
39613;BME280;25303;48.896;13.342;2023-05-16T08:10:23;92446.50;;;13.03;77.72
39613;BME280;25303;48.896;13.342;2023-05-16T08:13:06;92438.63;;;13.11;77.63
39613;BME280;25303;48.896;13.342;2023-05-16T08:15:51;92432.53;;;13.19;77.35
39613;BME280;25303;48.896;13.342;2023-05-16T08:18:34;92430.84;;;13.26;77.13
39613;BME280;25303;48.896;13.342;2023-05-16T08:21:17;92430.28;;;13.31;76.44
39613;BME280;25303;48.896;13.342;2023-05-16T08:24:00;92437.84;;;13.32;76.07
39613;BME280;25303;48.896;13.342;2023-05-16T08:26:46;92445.06;;;13.37;76.11
39613;BME280;25303;48.896;13.342;2023-05-16T08:29:29;92445.94;;;13.44;76.01
39613;BME280;25303;48.896;13.342;2023-05-16T08:32:13;92435.66;;;13.51;76.01
39613;BME280;25303;48.896;13.342;2023-05-16T08:34:58;92433.34;;;13.56;75.90
39613;BME280;25303;48.896;13.342;2023-05-16T08:37:41;92434.56;;;13.60;75.33
39613;BME280;25303;48.896;13.342;2023-05-16T08:40:25;92440.53;;;13.61;74.86
39613;BME280;25303;48.896;13.342;2023-05-16T08:43:08;92445.97;;;13.66;75.30
39613;BME280;25303;48.896;13.342;2023-05-16T08:45:52;92439.44;;;13.70;74.94
39613;BME280;25303;48.896;13.342;2023-05-16T08:48:39;92435.47;;;13.74;74.90
39613;BME280;25303;48.896;13.342;2023-05-16T08:51:25;92442.94;;;13.84;75.20
39613;BME280;25303;48.896;13.342;2023-05-16T08:54:11;92446.94;;;13.87;74.38
39613;BME280;25303;48.896;13.342;2023-05-16T08:56:55;92451.13;;;13.88;73.84
39613;BME280;25303;48.896;13.342;2023-05-16T08:59:39;92449.34;;;13.88;73.99
39613;BME280;25303;48.896;13.342;2023-05-16T09:02:22;92456.94;;;13.90;73.75
39613;BME280;25303;48.896;13.342;2023-05-16T09:05:09;92451.13;;;13.88;73.53
39613;BME280;25303;48.896;13.342;2023-05-16T09:07:53;92457.28;;;13.87;73.67
39613;BME280;25303;48.896;13.342;2023-05-16T09:10:36;92445.34;;;13.86;73.38
39613;BME280;25303;48.896;13.342;2023-05-16T09:13:19;92441.94;;;13.85;73.56
39613;BME280;25303;48.896;13.342;2023-05-16T09:16:09;92442.75;;;13.86;73.40
39613;BME280;25303;48.896;13.342;2023-05-16T09:18:55;92440.94;;;13.86;73.15
39613;BME280;25303;48.896;13.342;2023-05-16T09:21:40;92437.94;;;13.82;72.69
39613;BME280;25303;48.896;13.342;2023-05-16T09:24:24;92442.31;;;13.82;72.77
39613;BME280;25303;48.896;13.342;2023-05-16T09:27:08;92438.72;;;13.83;72.46
39613;BME280;25303;48.896;13.342;2023-05-16T09:29:51;92440.72;;;13.81;72.13
39613;BME280;25303;48.896;13.342;2023-05-16T09:32:34;92434.75;;;13.80;72.26
39613;BME280;25303;48.896;13.342;2023-05-16T09:35:18;92431.97;;;13.82;72.46
39613;BME280;25303;48.896;13.342;2023-05-16T09:38:23;92426.97;;;13.80;72.34
39613;BME280;25303;48.896;13.342;2023-05-16T09:41:08;92422.63;;;13.81;72.24
39613;BME280;25303;48.896;13.342;2023-05-16T09:43:51;92416.00;;;13.78;72.30
39613;BME280;25303;48.896;13.342;2023-05-16T09:46:35;92421.03;;;13.80;72.88
39613;BME280;25303;48.896;13.342;2023-05-16T09:49:19;92421.03;;;13.80;72.55
39613;BME280;25303;48.896;13.342;2023-05-16T09:52:02;92415.41;;;13.76;72.66
39613;BME280;25303;48.896;13.342;2023-05-16T09:54:47;92413.00;;;13.75;72.45
39613;BME280;25303;48.896;13.342;2023-05-16T09:57:31;92411.41;;;13.74;72.20
39613;BME280;25303;48.896;13.342;2023-05-16T10:00:15;92403.66;;;13.74;71.75
39613;BME280;25303;48.896;13.342;2023-05-16T10:03:00;92403.28;;;13.77;72.14
39613;BME280;25303;48.896;13.342;2023-05-16T10:05:46;92402.72;;;13.81;72.62
39613;BME280;25303;48.896;13.342;2023-05-16T10:08:31;92392.78;;;13.85;72.42
39613;BME280;25303;48.896;13.342;2023-05-16T10:11:18;92389.81;;;13.88;72.27
39613;BME280;25303;48.896;13.342;2023-05-16T10:14:03;92388.63;;;13.91;72.44
39613;BME280;25303;48.896;13.342;2023-05-16T10:16:49;92383.28;;;13.92;72.27
39613;BME280;25303;48.896;13.342;2023-05-16T10:19:34;92392.47;;;13.95;72.06
39613;BME280;25303;48.896;13.342;2023-05-16T10:22:21;92388.09;;;13.95;72.24
39613;BME280;25303;48.896;13.342;2023-05-16T10:25:08;92382.53;;;13.98;72.13
39613;BME280;25303;48.896;13.342;2023-05-16T10:27:56;92380.19;;;14.04;72.30
39613;BME280;25303;48.896;13.342;2023-05-16T10:30:41;92376.44;;;14.06;71.77
39613;BME280;25303;48.896;13.342;2023-05-16T10:33:24;92379.59;;;14.08;71.60
39613;BME280;25303;48.896;13.342;2023-05-16T10:36:08;92392.97;;;14.12;71.56
39613;BME280;25303;48.896;13.342;2023-05-16T10:38:52;92394.75;;;14.11;69.69
39613;BME280;25303;48.896;13.342;2023-05-16T10:41:36;92390.81;;;14.16;70.83
39613;BME280;25303;48.896;13.342;2023-05-16T10:44:20;92386.41;;;14.16;70.94
39613;BME280;25303;48.896;13.342;2023-05-16T10:47:04;92386.84;;;14.20;71.12
39613;BME280;25303;48.896;13.342;2023-05-16T10:49:47;92392.06;;;14.26;71.51
39613;BME280;25303;48.896;13.342;2023-05-16T10:52:33;92396.69;;;14.31;71.02
39613;BME280;25303;48.896;13.342;2023-05-16T10:55:17;92406.44;;;14.36;71.06
39613;BME280;25303;48.896;13.342;2023-05-16T10:58:01;92415.66;;;14.38;70.96
39613;BME280;25303;48.896;13.342;2023-05-16T11:00:47;92409.25;;;14.34;71.16
39613;BME280;25303;48.896;13.342;2023-05-16T11:03:30;92407.81;;;14.32;71.09
39613;BME280;25303;48.896;13.342;2023-05-16T11:06:20;92414.81;;;14.31;71.64
39613;BME280;25303;48.896;13.342;2023-05-16T11:09:07;92424.91;;;14.26;70.77
39613;BME280;25303;48.896;13.342;2023-05-16T11:12:00;92423.50;;;14.23;70.44
39613;BME280;25303;48.896;13.342;2023-05-16T11:14:49;92417.94;;;14.20;69.99
39613;BME280;25303;48.896;13.342;2023-05-16T11:17:39;92409.72;;;14.16;69.49
39613;BME280;25303;48.896;13.342;2023-05-16T11:20:29;92400.53;;;14.13;69.40
39613;BME280;25303;48.896;13.342;2023-05-16T11:23:23;92400.31;;;14.08;69.61
39613;BME280;25303;48.896;13.342;2023-05-16T11:26:07;92402.72;;;14.10;69.87
39613;BME280;25303;48.896;13.342;2023-05-16T11:28:50;92397.88;;;14.00;69.95
39613;BME280;25303;48.896;13.342;2023-05-16T11:31:34;92391.63;;;13.88;70.00
39613;BME280;25303;48.896;13.342;2023-05-16T11:34:19;92392.00;;;13.85;70.28
39613;BME280;25303;48.896;13.342;2023-05-16T11:37:02;92402.16;;;13.86;69.71
39613;BME280;25303;48.896;13.342;2023-05-16T11:39:46;92409.72;;;13.88;69.89
39613;BME280;25303;48.896;13.342;2023-05-16T11:42:29;92405.09;;;13.83;70.02
39613;BME280;25303;48.896;13.342;2023-05-16T11:45:16;92398.09;;;13.77;69.71
39613;BME280;25303;48.896;13.342;2023-05-16T11:48:01;92403.44;;;13.75;70.25
39613;BME280;25303;48.896;13.342;2023-05-16T11:50:46;92409.84;;;13.79;70.16
39613;BME280;25303;48.896;13.342;2023-05-16T11:53:29;92413.47;;;13.85;70.16
39613;BME280;25303;48.896;13.342;2023-05-16T11:56:12;92422.09;;;13.92;70.06
39613;BME280;25303;48.896;13.342;2023-05-16T11:58:55;92418.59;;;14.00;70.33
39613;BME280;25303;48.896;13.342;2023-05-16T12:01:39;92420.44;;;14.06;70.21
39613;BME280;25303;48.896;13.342;2023-05-16T12:04:23;92423.22;;;14.11;69.50
39613;BME280;25303;48.896;13.342;2023-05-16T12:07:07;92415.50;;;14.18;69.32
39613;BME280;25303;48.896;13.342;2023-05-16T12:09:51;92405.81;;;14.27;69.82
39613;BME280;25303;48.896;13.342;2023-05-16T12:12:36;92411.84;;;14.34;69.67
39613;BME280;25303;48.896;13.342;2023-05-16T12:15:20;92411.06;;;14.40;69.01
39613;BME280;25303;48.896;13.342;2023-05-16T12:18:04;92405.31;;;14.45;69.23
39613;BME280;25303;48.896;13.342;2023-05-16T12:20:48;92404.16;;;14.54;69.01
39613;BME280;25303;48.896;13.342;2023-05-16T12:23:33;92404.25;;;14.68;69.18
39613;BME280;25303;48.896;13.342;2023-05-16T12:26:24;92395.53;;;14.82;68.82
39613;BME280;25303;48.896;13.342;2023-05-16T12:29:07;92396.81;;;15.00;68.51
39613;BME280;25303;48.896;13.342;2023-05-16T12:31:52;92392.25;;;15.15;67.67
39613;BME280;25303;48.896;13.342;2023-05-16T12:34:35;92390.88;;;15.26;67.35
39613;BME280;25303;48.896;13.342;2023-05-16T12:37:19;92387.53;;;15.32;66.65
39613;BME280;25303;48.896;13.342;2023-05-16T12:40:06;92386.94;;;15.37;66.54
39613;BME280;25303;48.896;13.342;2023-05-16T12:42:52;92391.34;;;15.43;66.17
39613;BME280;25303;48.896;13.342;2023-05-16T12:45:35;92385.16;;;15.58;65.92
39613;BME280;25303;48.896;13.342;2023-05-16T12:48:19;92378.19;;;15.72;65.36
39613;BME280;25303;48.896;13.342;2023-05-16T12:51:12;92365.78;;;15.80;65.39
39613;BME280;25303;48.896;13.342;2023-05-16T12:53:55;92367.63;;;15.87;64.96
39613;BME280;25303;48.896;13.342;2023-05-16T12:56:54;92377.38;;;15.98;65.18
39613;BME280;25303;48.896;13.342;2023-05-16T12:59:37;92379.19;;;16.04;64.03
39613;BME280;25303;48.896;13.342;2023-05-16T13:02:21;92371.41;;;15.98;62.28
39613;BME280;25303;48.896;13.342;2023-05-16T13:05:05;92371.78;;;15.81;61.25
39613;BME280;25303;48.896;13.342;2023-05-16T13:07:49;92373.78;;;15.72;61.27
39613;BME280;25303;48.896;13.342;2023-05-16T13:10:33;92361.22;;;15.69;61.93
39613;BME280;25303;48.896;13.342;2023-05-16T13:13:19;92365.41;;;15.70;61.98
39613;BME280;25303;48.896;13.342;2023-05-16T13:16:16;92366.41;;;15.62;61.62
39613;BME280;25303;48.896;13.342;2023-05-16T13:19:15;92366.63;;;15.61;60.62
39613;BME280;25303;48.896;13.342;2023-05-16T13:22:08;92367.00;;;15.51;61.16
39613;BME280;25303;48.896;13.342;2023-05-16T13:24:51;92372.38;;;15.49;61.01
39613;BME280;25303;48.896;13.342;2023-05-16T13:27:34;92373.38;;;15.48;60.86
39613;BME280;25303;48.896;13.342;2023-05-16T13:30:18;92375.97;;;15.48;60.96
39613;BME280;25303;48.896;13.342;2023-05-16T13:33:01;92371.38;;;15.50;60.31
39613;BME280;25303;48.896;13.342;2023-05-16T13:35:45;92360.59;;;15.40;59.91
39613;BME280;25303;48.896;13.342;2023-05-16T13:38:27;92368.78;;;15.37;59.71
39613;BME280;25303;48.896;13.342;2023-05-16T13:41:11;92362.59;;;15.31;60.26
39613;BME280;25303;48.896;13.342;2023-05-16T13:43:54;92370.16;;;15.33;59.91
39613;BME280;25303;48.896;13.342;2023-05-16T13:46:39;92370.75;;;15.28;59.59
39613;BME280;25303;48.896;13.342;2023-05-16T13:49:22;92365.56;;;15.28;59.67
39613;BME280;25303;48.896;13.342;2023-05-16T13:52:05;92363.78;;;15.22;59.46
39613;BME280;25303;48.896;13.342;2023-05-16T13:54:49;92368.75;;;15.24;59.90
39613;BME280;25303;48.896;13.342;2023-05-16T13:57:32;92371.56;;;15.22;60.13
39613;BME280;25303;48.896;13.342;2023-05-16T14:00:16;92367.53;;;15.19;59.99
39613;BME280;25303;48.896;13.342;2023-05-16T14:03:21;92364.34;;;15.17;59.96
39613;BME280;25303;48.896;13.342;2023-05-16T14:06:04;92362.94;;;15.01;56.59
39613;BME280;25303;48.896;13.342;2023-05-16T14:08:48;92369.13;;;15.07;58.56
39613;BME280;25303;48.896;13.342;2023-05-16T14:11:31;92372.69;;;14.99;58.51
39613;BME280;25303;48.896;13.342;2023-05-16T14:14:14;92372.28;;;14.89;58.38
39613;BME280;25303;48.896;13.342;2023-05-16T14:16:57;92372.44;;;14.87;58.82
39613;BME280;25303;48.896;13.342;2023-05-16T14:19:42;92381.41;;;14.78;58.64
39613;BME280;25303;48.896;13.342;2023-05-16T14:22:25;92377.53;;;14.67;57.72
39613;BME280;25303;48.896;13.342;2023-05-16T14:25:09;92381.25;;;14.58;57.70